Time;durP1;ratioP1;P1;durP2;ratioP2;P2;SDS_P1;SDS_P2;PMS_P1;PMS_P2;Temp;Humidity;BMP_temperature;BMP_pressure;BME280_temperature;BME280_humidity;BME280_pressure;Samples;Min_cycle;Max_cycle;Signal;HPM_P1;HPM_P2
2022/05/30 00:01:09;;;;;;;3.40;3.33;;;12.10;1.00;;;;;;6179836;28;20242;-57
2022/05/30 00:04:13;;;;;;;3.70;3.50;;;12.10;1.00;;;;;;6182395;28;20374;-55
2022/05/30 00:07:16;;;;;;;3.90;3.70;;;12.10;1.00;;;;;;6178066;28;20319;-56
2022/05/30 00:10:19;;;;;;;3.40;3.23;;;12.00;1.00;;;;;;6177885;28;20250;-56
2022/05/30 00:13:22;;;;;;;3.97;3.77;;;12.00;1.00;;;;;;6184511;28;20248;-56
2022/05/30 00:16:25;;;;;;;4.10;3.80;;;12.00;1.00;;;;;;6179773;28;20545;-56
2022/05/30 00:19:29;;;;;;;3.17;3.07;;;11.80;1.00;;;;;;6176788;28;20242;-56
2022/05/30 00:22:32;;;;;;;3.87;3.67;;;11.80;1.00;;;;;;6175278;28;20520;-56
2022/05/30 00:25:35;;;;;;;4.03;3.47;;;11.70;1.00;;;;;;6180675;28;20394;-56
2022/05/30 00:28:38;;;;;;;3.50;3.40;;;11.70;1.00;;;;;;6170261;28;20331;-56
2022/05/30 00:31:41;;;;;;;3.57;3.47;;;11.70;1.00;;;;;;6187262;28;20243;-58
2022/05/30 00:34:45;;;;;;;3.60;3.47;;;11.60;1.00;;;;;;6186429;28;20243;-56
2022/05/30 00:37:47;;;;;;;4.13;3.93;;;11.60;1.00;;;;;;6175808;28;20301;-56
2022/05/30 00:40:50;;;;;;;3.30;3.20;;;11.60;1.00;;;;;;6176851;28;20228;-58
2022/05/30 00:43:53;;;;;;;3.30;3.20;;;11.70;1.00;;;;;;6176914;28;20240;-56
2022/05/30 00:46:56;;;;;;;3.50;3.37;;;11.70;1.00;;;;;;6179524;28;20745;-57
2022/05/30 00:50:00;;;;;;;3.43;3.33;;;11.70;1.00;;;;;;6175527;28;20232;-57
2022/05/30 00:53:03;;;;;;;3.53;3.43;;;11.80;1.00;;;;;;6183397;28;20369;-56
2022/05/30 00:56:09;;;;;;;3.77;3.43;;;11.70;1.00;;;;;;6181367;28;20531;-57
2022/05/30 00:59:13;;;;;;;4.30;3.70;;;11.80;1.00;;;;;;6176647;28;20235;-56
2022/05/30 01:02:16;;;;;;;3.53;3.47;;;11.80;1.00;;;;;;6180858;28;20383;-56
2022/05/30 01:08:41;;;;;;;3.90;3.73;;;11.80;1.00;;;;;;6175837;28;20233;-56
2022/05/30 01:11:53;;;;;;;3.77;3.60;;;11.80;1.00;;;;;;6180092;28;20244;-57
2022/05/30 01:14:56;;;;;;;3.63;3.53;;;11.80;1.00;;;;;;6183549;28;20297;-57
2022/05/30 01:18:02;;;;;;;3.30;3.20;;;11.80;1.00;;;;;;6179759;28;20885;-56
2022/05/30 01:21:39;;;;;;;4.00;3.80;;;11.80;1.00;;;;;;6173877;28;20620;-55
2022/05/30 01:24:52;;;;;;;3.30;3.20;;;11.80;3.20;;;;;;6179718;28;20319;-56
2022/05/30 01:28:01;;;;;;;3.93;3.63;;;11.80;6.30;;;;;;6180855;28;20294;-57
2022/05/30 01:31:05;;;;;;;3.80;3.50;;;11.80;5.90;;;;;;6178644;28;20236;-56
2022/05/30 01:34:08;;;;;;;3.63;3.37;;;11.80;14.30;;;;;;6181939;28;20302;-56
2022/05/30 01:37:11;;;;;;;4.97;4.60;;;11.80;18.60;;;;;;6178918;28;20694;-56
2022/05/30 01:40:14;;;;;;;4.30;4.13;;;11.80;52.10;;;;;;6171357;28;20913;-56
2022/05/30 01:43:16;;;;;;;4.40;4.20;;;11.80;90.00;;;;;;6183883;28;20244;-56
2022/05/30 01:46:22;;;;;;;4.80;4.57;;;11.70;99.90;;;;;;6178835;28;20232;-56
2022/05/30 01:49:26;;;;;;;4.70;4.40;;;11.70;99.90;;;;;;6169162;28;20469;-56
2022/05/30 01:52:29;;;;;;;4.37;4.17;;;11.70;99.90;;;;;;6178680;28;20781;-56
2022/05/30 01:55:32;;;;;;;3.90;3.80;;;11.70;99.90;;;;;;6184622;28;20236;-57
2022/05/30 01:58:36;;;;;;;4.63;4.43;;;11.70;99.90;;;;;;6175790;28;20412;-57
2022/05/30 02:01:44;;;;;;;4.20;4.00;;;11.60;99.90;;;;;;6175932;28;20273;-56
2022/05/30 02:04:47;;;;;;;4.60;4.20;;;11.60;99.90;;;;;;6173832;28;20236;-56
2022/05/30 02:07:50;;;;;;;4.77;4.57;;;11.60;99.90;;;;;;6194506;28;20243;-57
2022/05/30 02:10:53;;;;;;;4.80;4.60;;;11.50;99.90;;;;;;6176783;28;20326;-55
2022/05/30 02:13:55;;;;;;;4.80;4.50;;;11.60;99.90;;;;;;6182577;28;20327;-55
2022/05/30 02:17:04;;;;;;;4.60;4.30;;;11.50;99.90;;;;;;6181638;28;20242;-55
2022/05/30 02:20:08;;;;;;;4.70;4.40;;;11.50;99.90;;;;;;6170701;28;20227;-57
2022/05/30 02:23:11;;;;;;;4.50;4.30;;;11.50;99.90;;;;;;6184613;28;20566;-56
2022/05/30 02:26:14;;;;;;;4.73;4.53;;;11.50;99.90;;;;;;6187002;28;20243;-57
2022/05/30 02:29:18;;;;;;;5.50;5.10;;;11.40;99.90;;;;;;6179267;28;20232;-57
2022/05/30 02:32:22;;;;;;;4.83;4.53;;;11.30;99.90;;;;;;6181897;28;20301;-57
2022/05/30 02:38:45;;;;;;;4.90;4.70;;;11.30;99.90;;;;;;6180918;28;20236;-57
2022/05/30 02:41:49;;;;;;;5.20;4.70;;;11.20;99.90;;;;;;6186672;28;20238;-57
2022/05/30 02:44:51;;;;;;;5.37;5.07;;;11.30;99.90;;;;;;6186298;28;20232;-56
2022/05/30 02:47:55;;;;;;;5.67;5.27;;;11.20;99.90;;;;;;6182743;28;20382;-57
2022/05/30 02:50:58;;;;;;;5.27;4.90;;;11.20;99.90;;;;;;6178322;28;20234;-57
2022/05/30 02:54:01;;;;;;;6.20;5.57;;;11.10;99.90;;;;;;6185235;28;20610;-57
2022/05/30 02:57:04;;;;;;;5.97;5.47;;;11.10;99.90;;;;;;6186304;28;20236;-57
2022/05/30 03:00:08;;;;;;;6.00;5.50;;;11.10;99.90;;;;;;6174924;28;20235;-56
2022/05/30 03:03:12;;;;;;;5.33;5.00;;;11.10;99.90;;;;;;6188073;28;20263;-56
2022/05/30 03:06:15;;;;;;;6.40;5.67;;;11.10;99.90;;;;;;6183245;28;20737;-57
2022/05/30 03:09:19;;;;;;;5.70;5.40;;;11.10;99.90;;;;;;6179680;28;20448;-57
2022/05/30 03:12:22;;;;;;;6.27;5.67;;;11.10;99.90;;;;;;6177411;28;20240;-57
2022/05/30 03:15:25;;;;;;;6.30;5.80;;;11.10;99.90;;;;;;6187714;28;20792;-57
2022/05/30 03:18:32;;;;;;;7.77;7.00;;;11.10;99.90;;;;;;6186661;28;20235;-57
2022/05/30 03:21:34;;;;;;;6.93;6.47;;;11.10;99.90;;;;;;6182480;28;20685;-56
2022/05/30 03:24:37;;;;;;;6.30;5.83;;;11.20;99.90;;;;;;6184521;28;20236;-58
2022/05/30 03:27:40;;;;;;;6.47;6.07;;;11.20;99.90;;;;;;6182197;28;20242;-57
2022/05/30 03:30:44;;;;;;;5.87;5.57;;;11.20;99.90;;;;;;6181855;28;20239;-57
2022/05/30 03:33:48;;;;;;;6.80;6.30;;;11.20;99.90;;;;;;6171892;28;20231;-57
2022/05/30 03:36:50;;;;;;;6.93;6.47;;;11.30;99.90;;;;;;6179230;28;20753;-57
2022/05/30 03:39:53;;;;;;;7.37;6.87;;;11.20;99.90;;;;;;6184044;28;20338;-57
2022/05/30 03:42:56;;;;;;;7.27;6.77;;;11.30;99.90;;;;;;6195661;28;20250;-56
2022/05/30 03:45:59;;;;;;;7.37;6.77;;;11.20;99.90;;;;;;6188469;28;20360;-57
2022/05/30 03:49:03;;;;;;;7.37;6.87;;;11.30;99.90;;;;;;6177960;28;20240;-59
2022/05/30 03:52:07;;;;;;;7.13;6.73;;;11.40;99.90;;;;;;6178954;28;20802;-57
2022/05/30 03:55:13;;;;;;;8.67;7.77;;;11.50;99.90;;;;;;6194123;28;20602;-57
2022/05/30 03:58:16;;;;;;;8.40;7.77;;;11.50;99.90;;;;;;6189242;28;20326;-55
2022/05/30 04:01:19;;;;;;;7.40;6.90;;;11.60;99.90;;;;;;6186569;28;20719;-56
2022/05/30 04:04:23;;;;;;;7.97;7.30;;;11.60;99.90;;;;;;6188986;28;20235;-57
2022/05/30 04:07:26;;;;;;;8.77;7.63;;;11.80;99.90;;;;;;6173215;28;20231;-57
2022/05/30 04:10:29;;;;;;;8.47;7.87;;;11.70;99.90;;;;;;6191177;28;20242;-57
2022/05/30 04:13:32;;;;;;;9.17;8.30;;;11.70;99.90;;;;;;6193268;28;20293;-58
2022/05/30 04:16:35;;;;;;;9.97;8.97;;;11.70;99.90;;;;;;6190050;28;20278;-57
2022/05/30 04:19:39;;;;;;;12.80;11.43;;;11.70;99.90;;;;;;6181421;28;20239;-57
2022/05/30 04:22:44;;;;;;;12.13;11.00;;;11.60;99.90;;;;;;6185402;28;20396;-57
2022/05/30 04:25:46;;;;;;;13.03;9.80;;;11.60;99.90;;;;;;6188332;28;20333;-57
2022/05/30 04:28:49;;;;;;;9.03;7.23;;;11.80;99.90;;;;;;6180516;28;20236;-57
2022/05/30 04:31:52;;;;;;;8.27;7.50;;;11.70;99.90;;;;;;6195965;28;20227;-57
2022/05/30 04:34:56;;;;;;;10.00;8.73;;;11.80;99.90;;;;;;6188923;28;20646;-57
2022/05/30 04:37:59;;;;;;;12.07;10.03;;;11.70;99.90;;;;;;6184148;28;20247;-57
2022/05/30 04:41:02;;;;;;;12.90;10.77;;;11.60;99.90;;;;;;6186231;28;20228;-57
2022/05/30 04:44:05;;;;;;;18.07;11.77;;;11.50;99.90;;;;;;6193114;28;20814;-56
2022/05/30 04:47:11;;;;;;;13.87;11.40;;;11.50;99.90;;;;;;6187787;28;20278;-57
2022/05/30 04:50:17;;;;;;;14.40;11.77;;;11.40;99.90;;;;;;6179145;28;21196;-57
2022/05/30 04:53:20;;;;;;;16.10;11.20;;;11.30;99.90;;;;;;6189824;28;20709;-56
2022/05/30 04:56:22;;;;;;;11.70;10.47;;;11.30;99.90;;;;;;6193638;28;20615;-56
2022/05/30 04:59:25;;;;;;;12.47;10.80;;;11.30;99.90;;;;;;6181569;28;20232;-57
2022/05/30 05:02:28;;;;;;;12.03;9.90;;;11.30;99.90;;;;;;6191720;28;20717;-57
2022/05/30 05:05:32;;;;;;;10.43;9.47;;;11.30;99.90;;;;;;6185093;28;20239;-58
2022/05/30 05:08:44;;;;;;;14.10;10.30;;;11.40;99.90;;;;;;6185963;28;20304;-56
2022/05/30 05:11:48;;;;;;;12.57;9.63;;;11.50;99.90;;;;;;6189762;28;20672;-56
2022/05/30 05:14:50;;;;;;;12.07;9.13;;;11.40;99.90;;;;;;6191864;28;20319;-58
2022/05/30 05:17:54;;;;;;;15.27;9.70;;;11.50;99.90;;;;;;6188663;28;20768;-57
2022/05/30 05:20:58;;;;;;;11.57;10.30;;;11.40;99.90;;;;;;6176177;28;20324;-57
2022/05/30 05:24:01;;;;;;;12.50;9.93;;;11.40;99.90;;;;;;6186429;28;21021;-57
2022/05/30 05:27:05;;;;;;;14.80;10.03;;;11.50;99.90;;;;;;6180768;28;20872;-57
2022/05/30 05:30:10;;;;;;;9.53;7.37;;;11.50;99.90;;;;;;6181569;28;20734;-57
2022/05/30 05:33:14;;;;;;;11.50;8.10;;;11.50;99.90;;;;;;6187456;28;20318;-54
2022/05/30 05:36:21;;;;;;;9.23;7.87;;;11.60;99.90;;;;;;6185768;28;20508;-57
2022/05/30 05:39:23;;;;;;;16.50;7.17;;;11.60;99.90;;;;;;6180204;28;20359;-59
2022/05/30 05:42:26;;;;;;;12.10;6.70;;;11.70;99.90;;;;;;6185582;28;20255;-57
2022/05/30 05:45:29;;;;;;;9.57;6.57;;;11.90;99.90;;;;;;6194232;28;20243;-57
2022/05/30 05:48:32;;;;;;;12.03;6.20;;;11.90;99.90;;;;;;6181555;28;20721;-56
2022/05/30 05:51:38;;;;;;;11.70;6.87;;;12.10;99.90;;;;;;6187649;28;20544;-56
2022/05/30 05:54:40;;;;;;;10.20;6.80;;;12.10;99.90;;;;;;6189621;28;20242;-57
2022/05/30 05:57:43;;;;;;;12.23;7.50;;;12.10;99.90;;;;;;6197508;28;20250;-58
2022/05/30 06:00:46;;;;;;;11.43;7.93;;;12.10;99.90;;;;;;6189364;28;20394;-57
2022/05/30 06:03:49;;;;;;;9.20;7.80;;;12.10;99.90;;;;;;6196886;28;20652;-57
2022/05/30 06:06:53;;;;;;;8.37;6.63;;;12.20;99.90;;;;;;6189762;28;20630;-57
2022/05/30 06:09:55;;;;;;;9.77;7.23;;;12.20;99.90;;;;;;6190610;28;20227;-57
2022/05/30 06:12:58;;;;;;;9.07;6.60;;;12.20;99.90;;;;;;6183588;28;20266;-57
2022/05/30 06:16:01;;;;;;;9.27;6.17;;;12.20;99.90;;;;;;6194104;28;20276;-56
2022/05/30 06:19:04;;;;;;;6.20;5.30;;;12.20;99.90;;;;;;6182389;28;20375;-56
2022/05/30 06:22:10;;;;;;;9.80;6.17;;;11.90;99.90;;;;;;6183157;28;20327;-57
2022/05/30 06:25:13;;;;;;;9.13;5.40;;;11.70;99.90;;;;;;6196086;28;20326;-55
2022/05/30 06:28:15;;;;;;;7.40;5.27;;;11.60;99.90;;;;;;6189937;28;20617;-60
2022/05/30 06:31:21;;;;;;;6.90;5.70;;;11.50;99.90;;;;;;6189199;28;20231;-58
2022/05/30 06:34:23;;;;;;;6.60;5.97;;;11.50;99.90;;;;;;6195246;28;20255;-63
2022/05/30 06:37:27;;;;;;;7.60;5.70;;;11.60;99.90;;;;;;6194308;28;20305;-56
2022/05/30 06:40:30;;;;;;;7.67;5.53;;;11.70;99.90;;;;;;6178424;28;20290;-53
2022/05/30 06:43:33;;;;;;;8.50;5.60;;;11.50;99.90;;;;;;6194743;28;20750;-57
2022/05/30 06:46:38;;;;;;;7.20;5.60;;;11.60;99.90;;;;;;6194783;28;20653;-57
2022/05/30 06:49:40;;;;;;;9.10;5.97;;;11.70;99.90;;;;;;6191742;28;20786;-58
2022/05/30 06:52:45;;;;;;;9.43;5.63;;;11.80;99.90;;;;;;6182205;28;20464;-57
2022/05/30 06:55:50;;;;;;;12.27;5.80;;;11.80;99.90;;;;;;6191104;28;20298;-57
2022/05/30 06:58:54;;;;;;;12.40;5.50;;;12.00;99.90;;;;;;6184587;28;20237;-58
2022/05/30 07:01:58;;;;;;;10.80;6.10;;;12.20;99.90;;;;;;6192959;28;20620;-57
2022/05/30 07:05:01;;;;;;;11.53;5.93;;;12.30;92.10;;;;;;6189619;28;20227;-57
2022/05/30 07:08:06;;;;;;;8.80;5.77;;;12.40;99.70;;;;;;6189289;28;20243;-59
2022/05/30 07:11:09;;;;;;;8.60;5.10;;;12.70;92.10;;;;;;6188109;28;20426;-57
2022/05/30 07:14:12;;;;;;;7.60;5.60;;;12.90;53.30;;;;;;6192894;28;20236;-56
2022/05/30 07:17:16;;;;;;;8.50;5.07;;;13.00;36.30;;;;;;6194270;28;20412;-56
2022/05/30 07:20:19;;;;;;;8.27;5.17;;;13.20;43.40;;;;;;6181648;28;20543;-57
2022/05/30 07:23:24;;;;;;;10.03;5.37;;;13.30;24.90;;;;;;6184332;28;20329;-57
2022/05/30 07:26:28;;;;;;;9.23;5.30;;;13.30;15.40;;;;;;6193374;28;20236;-57
2022/05/30 07:29:30;;;;;;;7.27;4.80;;;13.30;4.80;;;;;;6178895;28;20292;-56
2022/05/30 07:32:33;;;;;;;8.80;5.93;;;13.50;1.00;;;;;;6185643;28;20825;-57
2022/05/30 07:35:37;;;;;;;7.00;5.33;;;13.50;1.00;;;;;;6194379;28;20327;-56
2022/05/30 07:38:41;;;;;;;5.90;5.30;;;13.40;1.00;;;;;;6162635;28;20816;-52
2022/05/30 07:41:45;;;;;;;7.37;5.30;;;13.30;1.00;;;;;;6184196;28;20371;-57
2022/05/30 07:44:47;;;;;;;7.30;5.17;;;13.20;3.90;;;;;;6195884;28;20483;-58
2022/05/30 07:47:50;;;;;;;5.10;4.70;;;13.30;1.00;;;;;;6193435;28;20715;-60
2022/05/30 07:50:56;;;;;;;7.63;5.37;;;13.30;4.30;;;;;;6186339;28;20925;-58
2022/05/30 07:54:00;;;;;;;8.33;5.07;;;13.50;6.00;;;;;;6190295;28;20918;-58
2022/05/30 07:57:04;;;;;;;10.47;5.53;;;13.60;1.00;;;;;;6185654;28;20358;-57
2022/05/30 08:00:08;;;;;;;9.23;5.60;;;13.60;1.00;;;;;;6181276;28;20476;-57
2022/05/30 08:03:13;;;;;;;6.57;4.87;;;13.70;1.00;;;;;;6189558;28;20240;-58
2022/05/30 08:06:19;;;;;;;6.90;4.60;;;13.60;1.00;;;;;;6175611;28;20236;-58
2022/05/30 08:09:24;;;;;;;10.07;5.13;;;13.60;1.00;;;;;;6182487;28;20331;-59
2022/05/30 08:12:27;;;;;;;8.97;5.23;;;13.70;1.00;;;;;;6189620;28;20507;-56
2022/05/30 08:15:30;;;;;;;5.27;4.50;;;13.90;1.00;;;;;;6186573;28;20363;-57
2022/05/30 08:18:34;;;;;;;4.77;4.30;;;14.00;1.00;;;;;;6190276;28;20322;-58
2022/05/30 08:21:37;;;;;;;8.13;4.90;;;14.30;1.00;;;;;;6188645;28;20247;-57
2022/05/30 08:24:43;;;;;;;9.53;5.30;;;14.50;1.00;;;;;;6189547;28;20267;-57
2022/05/30 08:27:48;;;;;;;11.77;4.90;;;14.40;1.00;;;;;;6188659;28;20232;-57
2022/05/30 08:30:51;;;;;;;6.13;5.00;;;14.40;1.00;;;;;;6171890;28;20286;-58
2022/05/30 08:33:54;;;;;;;7.43;4.90;;;14.40;1.00;;;;;;6188188;28;20685;-57
2022/05/30 08:36:56;;;;;;;10.70;4.50;;;14.30;1.00;;;;;;6187680;28;20824;-57
2022/05/30 08:43:28;;;;;;;7.07;4.67;;;14.60;1.00;;;;;;6188176;28;20320;-58
2022/05/30 08:46:38;;;;;;;7.13;4.07;;;14.90;1.00;;;;;;6193733;28;20241;-58
2022/05/30 08:49:46;;;;;;;5.63;3.90;;;15.10;1.00;;;;;;6186665;28;20373;-58
2022/05/30 08:53:08;;;;;;;9.93;5.27;;;15.20;1.00;;;;;;6182103;28;20634;-57
2022/05/30 08:56:22;;;;;;;5.60;4.17;;;15.10;1.00;;;;;;6186732;28;20255;-57
2022/05/30 08:59:41;;;;;;;8.33;4.30;;;15.00;1.00;;;;;;6191115;28;20496;-58
2022/05/30 09:02:49;;;;;;;5.37;4.63;;;15.10;1.00;;;;;;6182632;28;20686;-57
2022/05/30 09:05:58;;;;;;;9.30;4.33;;;15.20;1.00;;;;;;6186995;28;20589;-57
2022/05/30 09:09:08;;;;;;;6.10;3.53;;;15.10;1.00;;;;;;6188103;28;20639;-58
2022/05/30 09:12:19;;;;;;;7.33;4.23;;;15.10;1.00;;;;;;6188381;28;20235;-56
2022/05/30 09:15:25;;;;;;;4.30;3.53;;;14.80;1.00;;;;;;6193626;28;20402;-56
2022/05/30 09:18:33;;;;;;;7.67;3.60;;;14.80;1.00;;;;;;6187862;28;20330;-56
2022/05/30 09:21:38;;;;;;;4.90;3.60;;;14.90;1.00;;;;;;6180947;28;20240;-57
2022/05/30 09:25:55;;;;;;;4.33;3.53;;;15.00;1.00;;;;;;6188630;28;20458;-56
2022/05/30 09:28:07;;;;;;;4.17;3.27;;;15.40;1.00;;;;;;6165487;28;20357;-57
2022/05/30 09:31:19;;;;;;;4.97;3.07;;;15.60;1.00;;;;;;6187771;28;20369;-58
2022/05/30 09:34:39;;;;;;;6.30;3.50;;;15.80;1.00;;;;;;6184750;28;20236;-58
2022/05/30 09:37:41;;;;;;;6.43;3.33;;;15.90;1.00;;;;;;6177563;28;20243;-57
2022/05/30 09:40:48;;;;;;;3.60;2.90;;;15.70;1.00;;;;;;6178976;28;20382;-57
2022/05/30 09:43:55;;;;;;;7.07;3.20;;;15.70;1.00;;;;;;6183474;28;20266;-57
2022/05/30 09:47:03;;;;;;;4.90;2.87;;;15.70;1.00;;;;;;6189542;28;20730;-56
2022/05/30 09:50:19;;;;;;;3.10;2.90;;;15.50;1.00;;;;;;6182076;28;20244;-58
2022/05/30 09:53:42;;;;;;;3.40;3.10;;;15.50;1.00;;;;;;6183161;28;20251;-56
2022/05/30 09:56:46;;;;;;;3.50;2.97;;;15.70;1.00;;;;;;6178934;28;20888;-58
2022/05/30 09:59:53;;;;;;;2.90;2.70;;;15.90;1.00;;;;;;6179991;28;20235;-56
2022/05/30 10:03:01;;;;;;;2.73;2.47;;;16.10;1.00;;;;;;6179922;28;20327;-56
2022/05/30 10:06:14;;;;;;;3.10;2.80;;;16.00;1.00;;;;;;6185955;28;20637;-57
2022/05/30 10:09:22;;;;;;;3.50;2.53;;;15.90;1.00;;;;;;6179084;28;20236;-56
2022/05/30 10:12:31;;;;;;;3.17;2.83;;;15.80;1.00;;;;;;6181069;28;20447;-57
2022/05/30 10:15:38;;;;;;;2.80;2.60;;;15.50;1.00;;;;;;6188257;28;20775;-58
2022/05/30 10:18:53;;;;;;;2.30;2.20;;;15.40;1.00;;;;;;6183664;28;20252;-57
2022/05/30 10:29:07;;;;;;;2.60;2.50;;;15.60;1.00;;;;;;6182573;28;20232;-56
2022/05/30 10:32:17;;;;;;;2.73;2.53;;;15.70;1.00;;;;;;6190451;28;20540;-57
2022/05/30 10:35:24;;;;;;;3.17;2.53;;;15.70;1.00;;;;;;6184823;28;20851;-59
2022/05/30 10:38:41;;;;;;;2.40;2.30;;;16.10;1.00;;;;;;6186323;28;20236;-57
2022/05/30 10:41:48;;;;;;;2.37;2.20;;;16.20;1.00;;;;;;6184041;28;20856;-58
2022/05/30 10:44:56;;;;;;;2.37;2.27;;;16.20;1.00;;;;;;6190028;28;20518;-57
2022/05/30 10:48:03;;;;;;;2.50;2.30;;;16.30;1.00;;;;;;6191765;28;20562;-59
2022/05/30 10:51:10;;;;;;;2.30;2.13;;;16.10;1.00;;;;;;6182267;28;20836;-58
2022/05/30 10:54:22;;;;;;;2.60;2.50;;;16.20;1.00;;;;;;6192019;28;20240;-58
2022/05/30 10:57:40;;;;;;;2.27;2.17;;;16.20;1.00;;;;;;6193354;28;20837;-58
2022/05/30 11:00:48;;;;;;;2.63;2.43;;;16.10;1.00;;;;;;6195198;28;20885;-56
2022/05/30 11:04:07;;;;;;;2.40;2.30;;;16.20;1.00;;;;;;6179112;28;20259;-56
2022/05/30 11:07:37;;;;;;;2.20;1.80;;;16.40;1.00;;;;;;6193118;28;20246;-57
2022/05/30 11:10:46;;;;;;;2.83;2.63;;;16.70;1.00;;;;;;6175741;28;20710;-57
2022/05/30 11:13:54;;;;;;;2.50;2.20;;;16.80;1.00;;;;;;6190651;28;20348;-60
2022/05/30 11:17:05;;;;;;;2.07;1.90;;;17.00;1.00;;;;;;6197362;28;20330;-58
2022/05/30 11:20:14;;;;;;;2.20;2.07;;;16.90;1.00;;;;;;6184200;28;20236;-58
2022/05/30 11:23:18;;;;;;;2.40;2.30;;;17.00;1.00;;;;;;6189310;28;20232;-58
2022/05/30 11:26:45;;;;;;;2.10;1.90;;;16.90;1.00;;;;;;6192926;28;20239;-55
2022/05/30 11:30:19;;;;;;;2.20;2.00;;;16.90;1.00;;;;;;6180491;28;20631;-57
2022/05/30 11:33:44;;;;;;;1.90;1.80;;;16.90;1.00;;;;;;6191156;28;20311;-56
2022/05/30 11:37:21;;;;;;;2.23;2.13;;;17.00;1.00;;;;;;6190511;28;20235;-56
2022/05/30 11:40:34;;;;;;;2.20;2.10;;;17.20;1.00;;;;;;6188480;28;20231;-57
2022/05/30 11:43:54;;;;;;;1.93;1.93;;;17.20;1.00;;;;;;6182740;28;20773;-57
2022/05/30 11:47:12;;;;;;;2.20;2.17;;;17.00;1.00;;;;;;6189777;28;20350;-58
2022/05/30 11:50:33;;;;;;;2.20;2.00;;;16.90;1.00;;;;;;6180225;28;20363;-58
2022/05/30 11:53:56;;;;;;;2.40;2.30;;;17.00;1.00;;;;;;6192877;28;20331;-57
2022/05/30 11:57:10;;;;;;;2.50;2.30;;;17.10;1.00;;;;;;6194213;28;20254;-57
2022/05/30 12:00:25;;;;;;;2.63;2.47;;;17.00;1.00;;;;;;6185339;28;20606;-57
2022/05/30 12:03:47;;;;;;;4.97;2.60;;;17.10;1.00;;;;;;6186163;28;20398;-57
2022/05/30 12:07:20;;;;;;;3.33;2.53;;;16.90;1.00;;;;;;6177488;28;20236;-57
2022/05/30 12:10:39;;;;;;;2.57;2.30;;;17.00;1.00;;;;;;6185795;28;20632;-57
2022/05/30 12:13:57;;;;;;;2.90;2.33;;;17.30;1.00;;;;;;6188991;28;20769;-56
2022/05/30 12:17:12;;;;;;;2.50;2.30;;;17.30;1.00;;;;;;6185515;28;20509;-56
2022/05/30 12:24:03;;;;;;;3.13;2.93;;;17.50;1.00;;;;;;6189699;28;20319;-57
2022/05/30 12:27:33;;;;;;;3.80;2.50;;;17.50;1.00;;;;;;6179495;28;20236;-56
2022/05/30 12:30:46;;;;;;;2.20;2.10;;;17.50;1.00;;;;;;6183697;28;20248;-57
2022/05/30 12:33:49;;;;;;;2.57;2.37;;;17.60;1.00;;;;;;6178641;28;20236;-56
2022/05/30 12:36:52;;;;;;;5.40;3.17;;;17.60;1.00;;;;;;6183663;28;20790;-58
2022/05/30 12:39:59;;;;;;;2.73;2.33;;;17.50;1.00;;;;;;6187527;28;20375;-58
2022/05/30 12:43:13;;;;;;;2.50;2.30;;;17.40;1.00;;;;;;6174734;28;20472;-57
2022/05/30 12:46:22;;;;;;;3.33;2.27;;;17.30;1.00;;;;;;6187518;28;20637;-56
2022/05/30 12:49:36;;;;;;;2.47;2.27;;;17.20;1.00;;;;;;6183314;28;20388;-57
2022/05/30 12:52:55;;;;;;;4.10;2.57;;;17.30;1.00;;;;;;6184381;28;20327;-55
2022/05/30 12:55:57;;;;;;;2.83;2.37;;;17.50;1.00;;;;;;6175591;28;20604;-56
2022/05/30 12:59:19;;;;;;;2.67;2.50;;;17.30;1.00;;;;;;6185599;28;20744;-58
2022/05/30 13:02:55;;;;;;;2.73;2.53;;;17.30;1.00;;;;;;6185708;28;20519;-58
2022/05/30 13:06:12;;;;;;;2.20;2.20;;;17.50;1.00;;;;;;6176137;28;20613;-56
2022/05/30 13:09:20;;;;;;;2.50;2.30;;;17.60;1.00;;;;;;6183853;28;20236;-56
2022/05/30 13:12:53;;;;;;;4.77;2.13;;;17.70;1.00;;;;;;6187770;28;20235;-57
2022/05/30 13:16:05;;;;;;;3.13;2.37;;;18.00;1.00;;;;;;6189559;28;20239;-56
2022/05/30 13:19:12;;;;;;;3.90;2.33;;;17.90;1.00;;;;;;6194197;28;20686;-58
2022/05/30 13:22:15;;;;;;;3.27;2.20;;;17.90;1.00;;;;;;6179215;28;20384;-55
2022/05/30 13:25:20;;;;;;;3.37;1.97;;;17.90;1.00;;;;;;6189387;28;20236;-56
2022/05/30 13:28:26;;;;;;;2.23;2.13;;;18.00;1.00;;;;;;6169789;28;20440;-58
2022/05/30 13:31:32;;;;;;;2.43;2.00;;;17.90;1.00;;;;;;6180801;28;20238;-56
2022/05/30 13:34:36;;;;;;;2.07;1.97;;;18.10;1.00;;;;;;6184730;28;20322;-56
2022/05/30 13:37:43;;;;;;;2.13;2.03;;;18.20;1.00;;;;;;6185361;28;20592;-57
2022/05/30 13:40:48;;;;;;;3.47;2.23;;;18.20;1.00;;;;;;6188008;28;20235;-57
2022/05/30 13:43:53;;;;;;;2.70;2.00;;;18.10;1.00;;;;;;6181362;28;20239;-58
2022/05/30 13:47:17;;;;;;;2.10;2.00;;;18.10;1.00;;;;;;6186440;28;20244;-57
2022/05/30 13:50:20;;;;;;;2.00;1.90;;;18.20;1.00;;;;;;6182989;28;20449;-57
2022/05/30 13:53:25;;;;;;;2.03;1.93;;;18.20;1.00;;;;;;6189817;28;20251;-58
2022/05/30 13:56:34;;;;;;;4.57;2.20;;;18.10;1.00;;;;;;6183306;28;20249;-57
2022/05/30 13:59:43;;;;;;;2.10;1.90;;;18.00;1.00;;;;;;6187986;28;20693;-58
2022/05/30 14:03:10;;;;;;;1.97;1.87;;;17.80;1.00;;;;;;6174197;28;20508;-56
2022/05/30 14:06:21;;;;;;;2.30;2.20;;;17.70;1.00;;;;;;6170828;28;20686;-56
2022/05/30 14:09:25;;;;;;;2.40;2.20;;;17.80;1.00;;;;;;6179819;28;20240;-56
2022/05/30 14:12:32;;;;;;;2.23;2.10;;;17.80;1.00;;;;;;6182755;28;20233;-56
2022/05/30 14:15:36;;;;;;;2.50;2.30;;;17.80;1.00;;;;;;6188425;28;20244;-56
2022/05/30 14:18:49;;;;;;;2.37;2.10;;;17.90;1.00;;;;;;6189756;28;20239;-56
2022/05/30 14:21:56;;;;;;;2.47;2.03;;;17.90;1.00;;;;;;6183584;28;20231;-56
2022/05/30 14:25:03;;;;;;;3.00;2.40;;;17.90;1.00;;;;;;6193503;28;20513;-57
2022/05/30 14:28:11;;;;;;;2.40;2.30;;;17.90;1.00;;;;;;6187422;28;20236;-57
2022/05/30 14:31:17;;;;;;;2.10;2.00;;;17.70;1.00;;;;;;6184838;28;20232;-57
2022/05/30 14:34:32;;;;;;;4.10;2.40;;;17.50;1.00;;;;;;6188301;28;20314;-58
2022/05/30 14:37:38;;;;;;;2.73;2.03;;;17.30;1.00;;;;;;6189598;28;20245;-57
2022/05/30 14:40:44;;;;;;;2.50;2.30;;;17.20;1.00;;;;;;6181286;28;20892;-56
2022/05/30 14:43:50;;;;;;;2.50;2.30;;;17.00;1.00;;;;;;6193449;28;20341;-57
2022/05/30 14:46:56;;;;;;;1.97;1.97;;;17.00;1.00;;;;;;6193251;28;20254;-56
2022/05/30 14:50:04;;;;;;;2.20;2.10;;;16.80;1.00;;;;;;6180786;28;20642;-57
2022/05/30 14:53:08;;;;;;;2.00;1.90;;;16.70;1.00;;;;;;6194570;28;20283;-57
2022/05/30 14:56:13;;;;;;;2.83;2.63;;;16.70;1.00;;;;;;6193051;28;20627;-57
2022/05/30 14:59:31;;;;;;;2.60;2.37;;;16.70;1.00;;;;;;6193021;28;20720;-56
2022/05/30 15:05:55;;;;;;;2.40;2.20;;;16.70;1.00;;;;;;6188367;28;20370;-56
2022/05/30 15:08:58;;;;;;;2.50;2.40;;;16.50;1.00;;;;;;6180475;28;20240;-56
2022/05/30 15:12:01;;;;;;;2.53;2.33;;;16.40;1.00;;;;;;6188129;28;20310;-56
2022/05/30 15:15:05;;;;;;;2.87;2.43;;;16.50;1.00;;;;;;6181934;28;20243;-56
2022/05/30 15:18:09;;;;;;;5.50;2.43;;;16.60;1.00;;;;;;6190751;28;20320;-57
2022/05/30 15:21:18;;;;;;;3.17;2.37;;;16.80;1.00;;;;;;6193129;28;20254;-56
2022/05/30 15:24:24;;;;;;;2.07;2.00;;;17.10;1.00;;;;;;6188535;28;20305;-56
2022/05/30 15:27:27;;;;;;;3.10;2.37;;;17.20;1.00;;;;;;6185869;28;20342;-56
2022/05/30 15:30:30;;;;;;;2.73;2.53;;;17.30;1.00;;;;;;6187232;28;20310;-56
2022/05/30 15:33:34;;;;;;;2.63;2.27;;;17.30;1.00;;;;;;6183435;28;20252;-57
2022/05/30 15:36:38;;;;;;;2.27;2.20;;;17.20;1.00;;;;;;6188380;28;20254;-56
2022/05/30 15:39:43;;;;;;;2.50;2.30;;;17.30;1.00;;;;;;6179111;28;20770;-56
2022/05/30 15:42:49;;;;;;;2.20;2.10;;;17.30;1.00;;;;;;6176820;28;20322;-57
2022/05/30 15:45:57;;;;;;;2.73;2.33;;;17.20;1.00;;;;;;6185641;28;20318;-56
2022/05/30 15:49:00;;;;;;;2.07;1.77;;;17.00;1.00;;;;;;6181421;28;20628;-56
2022/05/30 15:52:17;;;;;;;2.10;2.00;;;16.90;1.00;;;;;;6181388;28;20300;-57
2022/05/30 15:58:40;;;;;;;1.93;1.83;;;16.90;1.00;;;;;;6178388;28;20260;-57
2022/05/30 16:01:43;;;;;;;2.17;2.07;;;17.00;1.00;;;;;;6185229;28;20257;-57
2022/05/30 16:04:46;;;;;;;2.60;2.50;;;17.00;1.00;;;;;;6184166;28;20650;-57
2022/05/30 16:08:04;;;;;;;2.23;2.13;;;17.00;1.00;;;;;;6177159;28;20321;-56
2022/05/30 16:11:10;;;;;;;5.07;2.33;;;16.90;1.00;;;;;;6186766;28;20602;-56
2022/05/30 16:14:13;;;;;;;2.70;2.40;;;16.80;1.00;;;;;;6183935;28;20263;-56
2022/05/30 16:17:16;;;;;;;2.30;2.20;;;16.70;1.00;;;;;;6172785;28;20428;-56
2022/05/30 16:20:19;;;;;;;3.70;2.30;;;16.70;1.00;;;;;;6180143;28;20242;-62
2022/05/30 16:23:27;;;;;;;2.73;2.50;;;16.50;1.00;;;;;;6182102;28;20256;-57
2022/05/30 16:26:32;;;;;;;4.33;2.40;;;16.40;1.00;;;;;;6202278;28;20352;-56
2022/05/30 16:29:35;;;;;;;2.13;2.03;;;16.40;1.00;;;;;;6181685;28;20240;-57
2022/05/30 16:32:37;;;;;;;2.33;2.20;;;16.50;1.00;;;;;;6181492;28;20258;-57
2022/05/30 16:35:40;;;;;;;3.60;2.50;;;16.40;1.00;;;;;;6189045;28;20294;-57
2022/05/30 16:38:44;;;;;;;2.30;2.20;;;16.50;1.00;;;;;;6187805;28;20254;-59
2022/05/30 16:41:47;;;;;;;2.63;2.43;;;16.40;1.00;;;;;;6192288;28;20241;-57
2022/05/30 16:44:50;;;;;;;2.50;2.40;;;16.20;1.00;;;;;;6199180;28;20306;-56